sensor_id;sensor_type;location;lat;lon;timestamp;P1;durP1;ratioP1;P2;durP2;ratioP2
19828;SDS011;10075;50.924;4.396;2022-09-23T00:00:29;9.90;;;5.73;;
19828;SDS011;10075;50.924;4.396;2022-09-23T00:02:56;9.40;;;5.50;;
19828;SDS011;10075;50.924;4.396;2022-09-23T00:05:24;9.33;;;5.60;;
19828;SDS011;10075;50.924;4.396;2022-09-23T00:07:51;10.63;;;6.07;;
19828;SDS011;10075;50.924;4.396;2022-09-23T00:10:19;12.50;;;6.73;;
19828;SDS011;10075;50.924;4.396;2022-09-23T00:12:46;12.73;;;6.83;;
19828;SDS011;10075;50.924;4.396;2022-09-23T00:15:15;13.63;;;6.60;;
19828;SDS011;10075;50.924;4.396;2022-09-23T00:17:42;11.13;;;6.23;;
19828;SDS011;10075;50.924;4.396;2022-09-23T00:20:10;10.50;;;6.80;;
19828;SDS011;10075;50.924;4.396;2022-09-23T00:22:37;11.37;;;6.53;;
19828;SDS011;10075;50.924;4.396;2022-09-23T00:25:05;13.27;;;7.90;;
19828;SDS011;10075;50.924;4.396;2022-09-23T00:27:33;12.57;;;7.30;;
19828;SDS011;10075;50.924;4.396;2022-09-23T00:30:00;13.27;;;6.67;;
19828;SDS011;10075;50.924;4.396;2022-09-23T00:32:29;14.47;;;7.67;;
19828;SDS011;10075;50.924;4.396;2022-09-23T00:34:56;16.23;;;8.47;;
19828;SDS011;10075;50.924;4.396;2022-09-23T00:37:23;12.97;;;7.73;;
19828;SDS011;10075;50.924;4.396;2022-09-23T00:39:50;11.33;;;6.23;;
19828;SDS011;10075;50.924;4.396;2022-09-23T00:42:18;12.50;;;7.30;;
19828;SDS011;10075;50.924;4.396;2022-09-23T00:44:47;15.33;;;7.53;;
19828;SDS011;10075;50.924;4.396;2022-09-23T00:47:18;13.20;;;6.87;;
19828;SDS011;10075;50.924;4.396;2022-09-23T00:49:50;14.40;;;7.43;;
19828;SDS011;10075;50.924;4.396;2022-09-23T00:52:26;9.23;;;6.73;;
19828;SDS011;10075;50.924;4.396;2022-09-23T00:54:54;12.80;;;6.77;;
19828;SDS011;10075;50.924;4.396;2022-09-23T00:57:24;12.10;;;6.70;;
19828;SDS011;10075;50.924;4.396;2022-09-23T00:59:52;9.07;;;6.17;;
19828;SDS011;10075;50.924;4.396;2022-09-23T01:02:20;14.47;;;6.47;;
19828;SDS011;10075;50.924;4.396;2022-09-23T01:04:48;9.37;;;5.80;;
19828;SDS011;10075;50.924;4.396;2022-09-23T01:07:16;9.90;;;5.17;;
19828;SDS011;10075;50.924;4.396;2022-09-23T01:09:45;7.77;;;5.47;;
19828;SDS011;10075;50.924;4.396;2022-09-23T01:12:17;8.97;;;6.07;;
19828;SDS011;10075;50.924;4.396;2022-09-23T01:15:02;13.30;;;6.90;;
19828;SDS011;10075;50.924;4.396;2022-09-23T01:17:41;14.63;;;7.37;;
19828;SDS011;10075;50.924;4.396;2022-09-23T01:20:27;10.83;;;6.70;;
19828;SDS011;10075;50.924;4.396;2022-09-23T01:23:16;12.33;;;7.23;;
19828;SDS011;10075;50.924;4.396;2022-09-23T01:26:04;10.83;;;6.20;;
19828;SDS011;10075;50.924;4.396;2022-09-23T01:28:50;11.60;;;7.73;;
19828;SDS011;10075;50.924;4.396;2022-09-23T01:31:30;10.88;;;6.75;;
19828;SDS011;10075;50.924;4.396;2022-09-23T01:34:03;13.63;;;7.00;;
19828;SDS011;10075;50.924;4.396;2022-09-23T01:36:36;12.93;;;6.83;;
19828;SDS011;10075;50.924;4.396;2022-09-23T01:39:09;12.07;;;6.07;;
19828;SDS011;10075;50.924;4.396;2022-09-23T01:41:46;11.53;;;6.60;;
19828;SDS011;10075;50.924;4.396;2022-09-23T01:44:20;11.23;;;6.10;;
19828;SDS011;10075;50.924;4.396;2022-09-23T01:46:55;11.73;;;7.03;;
19828;SDS011;10075;50.924;4.396;2022-09-23T01:49:26;11.13;;;6.60;;
19828;SDS011;10075;50.924;4.396;2022-09-23T01:51:58;11.33;;;6.40;;
19828;SDS011;10075;50.924;4.396;2022-09-23T01:54:32;13.13;;;6.67;;
19828;SDS011;10075;50.924;4.396;2022-09-23T01:57:04;13.97;;;7.93;;
19828;SDS011;10075;50.924;4.396;2022-09-23T01:59:36;13.30;;;7.37;;
19828;SDS011;10075;50.924;4.396;2022-09-23T02:02:07;14.60;;;8.30;;
19828;SDS011;10075;50.924;4.396;2022-09-23T02:04:40;16.43;;;7.03;;
19828;SDS011;10075;50.924;4.396;2022-09-23T02:07:13;14.43;;;7.40;;
19828;SDS011;10075;50.924;4.396;2022-09-23T02:09:46;13.60;;;6.60;;
19828;SDS011;10075;50.924;4.396;2022-09-23T02:12:19;13.80;;;7.13;;
19828;SDS011;10075;50.924;4.396;2022-09-23T02:14:52;11.30;;;5.90;;
19828;SDS011;10075;50.924;4.396;2022-09-23T02:17:24;11.03;;;6.47;;
19828;SDS011;10075;50.924;4.396;2022-09-23T02:19:58;11.63;;;6.47;;
19828;SDS011;10075;50.924;4.396;2022-09-23T02:22:29;11.67;;;6.37;;
19828;SDS011;10075;50.924;4.396;2022-09-23T02:25:04;14.33;;;6.67;;
19828;SDS011;10075;50.924;4.396;2022-09-23T02:27:34;11.73;;;6.87;;
19828;SDS011;10075;50.924;4.396;2022-09-23T02:30:08;9.63;;;6.40;;
19828;SDS011;10075;50.924;4.396;2022-09-23T02:32:42;10.23;;;6.93;;
19828;SDS011;10075;50.924;4.396;2022-09-23T02:35:17;14.60;;;6.90;;
19828;SDS011;10075;50.924;4.396;2022-09-23T02:37:51;10.27;;;7.00;;
19828;SDS011;10075;50.924;4.396;2022-09-23T02:40:26;12.87;;;7.53;;
19828;SDS011;10075;50.924;4.396;2022-09-23T02:43:03;12.33;;;6.87;;
19828;SDS011;10075;50.924;4.396;2022-09-23T02:45:34;10.83;;;6.93;;
19828;SDS011;10075;50.924;4.396;2022-09-23T02:48:05;14.50;;;6.93;;
19828;SDS011;10075;50.924;4.396;2022-09-23T02:50:36;13.10;;;7.67;;
19828;SDS011;10075;50.924;4.396;2022-09-23T02:53:03;17.73;;;9.07;;
19828;SDS011;10075;50.924;4.396;2022-09-23T02:55:31;13.47;;;8.10;;
19828;SDS011;10075;50.924;4.396;2022-09-23T02:57:58;12.97;;;7.70;;
19828;SDS011;10075;50.924;4.396;2022-09-23T03:00:29;12.13;;;7.50;;
19828;SDS011;10075;50.924;4.396;2022-09-23T03:03:08;14.50;;;7.73;;
19828;SDS011;10075;50.924;4.396;2022-09-23T03:05:49;12.73;;;7.03;;
19828;SDS011;10075;50.924;4.396;2022-09-23T03:08:24;13.13;;;7.10;;
19828;SDS011;10075;50.924;4.396;2022-09-23T03:11:03;18.97;;;7.60;;
19828;SDS011;10075;50.924;4.396;2022-09-23T03:13:34;11.43;;;7.23;;
19828;SDS011;10075;50.924;4.396;2022-09-23T03:16:09;12.63;;;6.57;;
19828;SDS011;10075;50.924;4.396;2022-09-23T03:18:45;9.70;;;6.40;;
19828;SDS011;10075;50.924;4.396;2022-09-23T03:21:18;12.67;;;6.83;;
19828;SDS011;10075;50.924;4.396;2022-09-23T03:23:50;12.27;;;7.00;;
19828;SDS011;10075;50.924;4.396;2022-09-23T03:26:19;11.93;;;6.77;;
19828;SDS011;10075;50.924;4.396;2022-09-23T03:28:49;11.33;;;6.60;;
19828;SDS011;10075;50.924;4.396;2022-09-23T03:31:17;14.57;;;7.40;;
19828;SDS011;10075;50.924;4.396;2022-09-23T03:33:46;12.17;;;6.60;;
19828;SDS011;10075;50.924;4.396;2022-09-23T03:36:16;23.67;;;9.77;;
19828;SDS011;10075;50.924;4.396;2022-09-23T03:39:04;11.90;;;7.20;;
19828;SDS011;10075;50.924;4.396;2022-09-23T03:41:35;13.97;;;7.63;;
19828;SDS011;10075;50.924;4.396;2022-09-23T03:44:06;13.10;;;7.43;;
19828;SDS011;10075;50.924;4.396;2022-09-23T03:46:33;16.17;;;9.17;;
19828;SDS011;10075;50.924;4.396;2022-09-23T03:49:06;21.60;;;11.97;;
19828;SDS011;10075;50.924;4.396;2022-09-23T03:51:35;12.97;;;8.17;;
19828;SDS011;10075;50.924;4.396;2022-09-23T03:54:02;17.43;;;9.37;;
19828;SDS011;10075;50.924;4.396;2022-09-23T03:56:29;14.43;;;10.17;;
19828;SDS011;10075;50.924;4.396;2022-09-23T03:58:56;22.70;;;11.50;;
19828;SDS011;10075;50.924;4.396;2022-09-23T04:01:23;19.47;;;9.50;;
19828;SDS011;10075;50.924;4.396;2022-09-23T04:03:50;24.67;;;12.93;;
19828;SDS011;10075;50.924;4.396;2022-09-23T04:06:19;22.23;;;12.90;;
19828;SDS011;10075;50.924;4.396;2022-09-23T04:08:46;22.13;;;13.10;;
19828;SDS011;10075;50.924;4.396;2022-09-23T04:11:14;22.37;;;13.30;;
19828;SDS011;10075;50.924;4.396;2022-09-23T04:13:41;23.17;;;13.53;;
19828;SDS011;10075;50.924;4.396;2022-09-23T04:16:08;25.67;;;14.00;;
19828;SDS011;10075;50.924;4.396;2022-09-23T04:18:35;26.23;;;14.20;;
19828;SDS011;10075;50.924;4.396;2022-09-23T04:21:02;24.03;;;12.83;;
19828;SDS011;10075;50.924;4.396;2022-09-23T04:23:30;21.70;;;13.07;;
19828;SDS011;10075;50.924;4.396;2022-09-23T04:25:57;27.47;;;13.80;;
19828;SDS011;10075;50.924;4.396;2022-09-23T04:28:24;21.10;;;12.17;;
19828;SDS011;10075;50.924;4.396;2022-09-23T04:30:51;20.90;;;12.38;;
19828;SDS011;10075;50.924;4.396;2022-09-23T04:33:20;24.37;;;13.13;;
19828;SDS011;10075;50.924;4.396;2022-09-23T04:35:48;26.27;;;11.80;;
19828;SDS011;10075;50.924;4.396;2022-09-23T04:38:16;23.00;;;11.37;;
19828;SDS011;10075;50.924;4.396;2022-09-23T04:40:45;21.87;;;11.50;;
19828;SDS011;10075;50.924;4.396;2022-09-23T04:43:12;20.23;;;11.20;;
19828;SDS011;10075;50.924;4.396;2022-09-23T04:45:40;16.67;;;10.07;;
19828;SDS011;10075;50.924;4.396;2022-09-23T04:48:07;19.73;;;10.40;;
19828;SDS011;10075;50.924;4.396;2022-09-23T04:50:35;17.80;;;10.53;;
19828;SDS011;10075;50.924;4.396;2022-09-23T04:53:02;17.57;;;9.80;;
19828;SDS011;10075;50.924;4.396;2022-09-23T04:55:30;18.67;;;9.70;;
19828;SDS011;10075;50.924;4.396;2022-09-23T04:57:58;16.27;;;9.23;;
19828;SDS011;10075;50.924;4.396;2022-09-23T05:00:25;18.05;;;9.50;;
19828;SDS011;10075;50.924;4.396;2022-09-23T05:02:52;17.27;;;9.13;;
19828;SDS011;10075;50.924;4.396;2022-09-23T05:05:19;17.17;;;9.43;;
19828;SDS011;10075;50.924;4.396;2022-09-23T05:07:47;19.17;;;8.82;;
19828;SDS011;10075;50.924;4.396;2022-09-23T05:10:14;17.37;;;8.87;;
19828;SDS011;10075;50.924;4.396;2022-09-23T05:12:42;18.07;;;8.23;;
19828;SDS011;10075;50.924;4.396;2022-09-23T05:15:10;11.80;;;7.40;;
19828;SDS011;10075;50.924;4.396;2022-09-23T05:17:39;16.33;;;8.27;;
19828;SDS011;10075;50.924;4.396;2022-09-23T05:20:07;14.63;;;8.13;;
19828;SDS011;10075;50.924;4.396;2022-09-23T05:22:34;20.33;;;8.37;;
19828;SDS011;10075;50.924;4.396;2022-09-23T05:25:02;19.03;;;8.73;;
19828;SDS011;10075;50.924;4.396;2022-09-23T05:27:29;14.55;;;8.95;;
19828;SDS011;10075;50.924;4.396;2022-09-23T05:29:56;18.20;;;9.23;;
19828;SDS011;10075;50.924;4.396;2022-09-23T05:32:26;18.50;;;8.40;;
19828;SDS011;10075;50.924;4.396;2022-09-23T05:34:53;15.50;;;8.18;;
19828;SDS011;10075;50.924;4.396;2022-09-23T05:37:20;14.30;;;8.35;;
19828;SDS011;10075;50.924;4.396;2022-09-23T05:39:47;19.23;;;8.90;;
19828;SDS011;10075;50.924;4.396;2022-09-23T05:42:14;18.27;;;8.27;;
19828;SDS011;10075;50.924;4.396;2022-09-23T05:44:44;15.40;;;8.90;;
19828;SDS011;10075;50.924;4.396;2022-09-23T05:47:11;15.43;;;7.73;;
19828;SDS011;10075;50.924;4.396;2022-09-23T05:49:40;16.10;;;8.50;;
19828;SDS011;10075;50.924;4.396;2022-09-23T05:52:07;15.50;;;7.97;;
19828;SDS011;10075;50.924;4.396;2022-09-23T05:54:34;18.67;;;8.82;;
19828;SDS011;10075;50.924;4.396;2022-09-23T05:57:02;17.47;;;8.20;;
19828;SDS011;10075;50.924;4.396;2022-09-23T05:59:30;14.85;;;8.18;;
19828;SDS011;10075;50.924;4.396;2022-09-23T06:01:57;15.70;;;8.53;;
19828;SDS011;10075;50.924;4.396;2022-09-23T06:04:25;17.70;;;8.45;;
19828;SDS011;10075;50.924;4.396;2022-09-23T06:06:53;17.00;;;8.43;;
19828;SDS011;10075;50.924;4.396;2022-09-23T06:09:22;17.73;;;9.43;;
19828;SDS011;10075;50.924;4.396;2022-09-23T06:11:49;18.60;;;9.63;;
19828;SDS011;10075;50.924;4.396;2022-09-23T06:14:16;19.10;;;9.88;;
19828;SDS011;10075;50.924;4.396;2022-09-23T06:16:43;17.02;;;9.70;;
19828;SDS011;10075;50.924;4.396;2022-09-23T06:19:10;16.30;;;8.85;;
19828;SDS011;10075;50.924;4.396;2022-09-23T06:21:37;19.75;;;9.43;;
19828;SDS011;10075;50.924;4.396;2022-09-23T06:24:07;19.42;;;9.98;;
19828;SDS011;10075;50.924;4.396;2022-09-23T06:26:34;19.30;;;9.02;;
19828;SDS011;10075;50.924;4.396;2022-09-23T06:29:03;19.17;;;9.00;;
19828;SDS011;10075;50.924;4.396;2022-09-23T06:31:35;20.38;;;9.35;;
19828;SDS011;10075;50.924;4.396;2022-09-23T06:34:02;19.90;;;10.18;;
19828;SDS011;10075;50.924;4.396;2022-09-23T06:36:29;20.63;;;9.02;;
19828;SDS011;10075;50.924;4.396;2022-09-23T06:38:56;19.02;;;9.10;;
19828;SDS011;10075;50.924;4.396;2022-09-23T06:41:24;19.23;;;9.68;;
19828;SDS011;10075;50.924;4.396;2022-09-23T06:43:51;18.55;;;9.38;;
19828;SDS011;10075;50.924;4.396;2022-09-23T06:46:18;20.08;;;9.05;;
19828;SDS011;10075;50.924;4.396;2022-09-23T06:48:45;22.63;;;10.35;;
19828;SDS011;10075;50.924;4.396;2022-09-23T06:51:13;22.73;;;10.23;;
19828;SDS011;10075;50.924;4.396;2022-09-23T06:53:43;17.75;;;9.05;;
19828;SDS011;10075;50.924;4.396;2022-09-23T06:56:14;22.38;;;9.80;;
19828;SDS011;10075;50.924;4.396;2022-09-23T06:58:45;17.35;;;8.63;;
19828;SDS011;10075;50.924;4.396;2022-09-23T07:01:12;19.10;;;9.82;;
19828;SDS011;10075;50.924;4.396;2022-09-23T07:03:41;24.30;;;10.52;;
19828;SDS011;10075;50.924;4.396;2022-09-23T07:06:09;25.13;;;11.07;;
19828;SDS011;10075;50.924;4.396;2022-09-23T07:08:36;23.80;;;10.75;;
19828;SDS011;10075;50.924;4.396;2022-09-23T07:11:05;20.40;;;10.73;;
19828;SDS011;10075;50.924;4.396;2022-09-23T07:13:37;27.38;;;12.75;;
19828;SDS011;10075;50.924;4.396;2022-09-23T07:16:07;28.52;;;11.70;;
19828;SDS011;10075;50.924;4.396;2022-09-23T07:18:34;28.70;;;12.27;;
19828;SDS011;10075;50.924;4.396;2022-09-23T07:21:06;21.95;;;11.13;;
19828;SDS011;10075;50.924;4.396;2022-09-23T07:23:36;24.40;;;11.93;;
19828;SDS011;10075;50.924;4.396;2022-09-23T07:26:03;22.17;;;10.93;;
19828;SDS011;10075;50.924;4.396;2022-09-23T07:28:31;24.95;;;11.73;;
19828;SDS011;10075;50.924;4.396;2022-09-23T07:31:01;24.35;;;11.02;;
19828;SDS011;10075;50.924;4.396;2022-09-23T07:33:32;22.02;;;10.57;;
19828;SDS011;10075;50.924;4.396;2022-09-23T07:36:03;21.35;;;10.50;;
19828;SDS011;10075;50.924;4.396;2022-09-23T07:38:31;24.67;;;10.60;;
19828;SDS011;10075;50.924;4.396;2022-09-23T07:41:01;21.75;;;10.35;;
19828;SDS011;10075;50.924;4.396;2022-09-23T07:43:29;20.10;;;9.85;;
19828;SDS011;10075;50.924;4.396;2022-09-23T07:45:57;18.50;;;9.52;;
19828;SDS011;10075;50.924;4.396;2022-09-23T07:48:26;17.02;;;9.52;;
19828;SDS011;10075;50.924;4.396;2022-09-23T07:50:55;21.88;;;8.77;;
19828;SDS011;10075;50.924;4.396;2022-09-23T07:53:23;16.92;;;8.52;;
19828;SDS011;10075;50.924;4.396;2022-09-23T07:55:51;16.67;;;7.97;;
19828;SDS011;10075;50.924;4.396;2022-09-23T07:58:18;22.90;;;8.07;;
19828;SDS011;10075;50.924;4.396;2022-09-23T08:00:46;17.70;;;8.05;;
19828;SDS011;10075;50.924;4.396;2022-09-23T08:03:13;16.40;;;6.85;;
19828;SDS011;10075;50.924;4.396;2022-09-23T08:05:40;16.98;;;7.85;;
19828;SDS011;10075;50.924;4.396;2022-09-23T08:08:08;17.80;;;8.07;;
19828;SDS011;10075;50.924;4.396;2022-09-23T08:10:35;17.40;;;8.07;;
19828;SDS011;10075;50.924;4.396;2022-09-23T08:13:02;17.35;;;8.05;;
19828;SDS011;10075;50.924;4.396;2022-09-23T08:15:29;16.67;;;7.63;;
19828;SDS011;10075;50.924;4.396;2022-09-23T08:17:56;18.13;;;7.22;;
19828;SDS011;10075;50.924;4.396;2022-09-23T08:20:25;16.92;;;6.55;;
19828;SDS011;10075;50.924;4.396;2022-09-23T08:23:12;14.52;;;6.57;;
19828;SDS011;10075;50.924;4.396;2022-09-23T08:25:41;15.95;;;6.47;;
19828;SDS011;10075;50.924;4.396;2022-09-23T08:28:10;15.82;;;6.13;;
19828;SDS011;10075;50.924;4.396;2022-09-23T08:30:40;11.88;;;6.95;;
19828;SDS011;10075;50.924;4.396;2022-09-23T08:33:07;11.70;;;6.80;;
19828;SDS011;10075;50.924;4.396;2022-09-23T08:35:34;13.93;;;6.22;;
19828;SDS011;10075;50.924;4.396;2022-09-23T08:38:01;12.13;;;6.88;;
19828;SDS011;10075;50.924;4.396;2022-09-23T08:40:29;15.88;;;6.70;;
19828;SDS011;10075;50.924;4.396;2022-09-23T08:42:59;19.00;;;6.55;;
19828;SDS011;10075;50.924;4.396;2022-09-23T08:45:26;11.70;;;6.10;;
19828;SDS011;10075;50.924;4.396;2022-09-23T08:47:54;14.10;;;5.85;;
19828;SDS011;10075;50.924;4.396;2022-09-23T08:50:32;22.70;;;6.38;;
19828;SDS011;10075;50.924;4.396;2022-09-23T08:53:03;18.08;;;6.43;;
19828;SDS011;10075;50.924;4.396;2022-09-23T08:55:36;14.90;;;6.50;;
19828;SDS011;10075;50.924;4.396;2022-09-23T08:58:17;11.95;;;6.00;;
19828;SDS011;10075;50.924;4.396;2022-09-23T09:00:54;13.45;;;5.95;;
19828;SDS011;10075;50.924;4.396;2022-09-23T09:03:32;15.13;;;6.13;;
19828;SDS011;10075;50.924;4.396;2022-09-23T09:06:02;12.77;;;6.03;;
19828;SDS011;10075;50.924;4.396;2022-09-23T09:08:29;19.05;;;6.68;;
19828;SDS011;10075;50.924;4.396;2022-09-23T09:11:01;14.45;;;6.00;;
19828;SDS011;10075;50.924;4.396;2022-09-23T09:13:30;15.02;;;5.32;;
19828;SDS011;10075;50.924;4.396;2022-09-23T09:16:09;14.85;;;6.13;;
19828;SDS011;10075;50.924;4.396;2022-09-23T09:18:47;11.77;;;5.53;;
19828;SDS011;10075;50.924;4.396;2022-09-23T09:21:18;17.23;;;7.10;;
19828;SDS011;10075;50.924;4.396;2022-09-23T09:23:51;12.93;;;6.22;;
19828;SDS011;10075;50.924;4.396;2022-09-23T09:26:23;13.75;;;6.03;;
19828;SDS011;10075;50.924;4.396;2022-09-23T09:28:53;14.05;;;5.63;;
19828;SDS011;10075;50.924;4.396;2022-09-23T09:31:25;23.42;;;5.88;;
19828;SDS011;10075;50.924;4.396;2022-09-23T09:33:58;12.20;;;5.70;;
19828;SDS011;10075;50.924;4.396;2022-09-23T09:36:31;15.43;;;6.10;;
19828;SDS011;10075;50.924;4.396;2022-09-23T09:39:03;13.70;;;6.25;;
19828;SDS011;10075;50.924;4.396;2022-09-23T09:41:32;9.88;;;5.47;;
19828;SDS011;10075;50.924;4.396;2022-09-23T09:43:59;11.20;;;5.50;;
19828;SDS011;10075;50.924;4.396;2022-09-23T09:46:37;10.20;;;4.90;;
19828;SDS011;10075;50.924;4.396;2022-09-23T09:49:17;8.57;;;4.70;;
19828;SDS011;10075;50.924;4.396;2022-09-23T09:52:01;13.10;;;5.65;;
19828;SDS011;10075;50.924;4.396;2022-09-23T09:54:37;10.25;;;4.90;;
19828;SDS011;10075;50.924;4.396;2022-09-23T09:57:08;10.48;;;4.90;;
19828;SDS011;10075;50.924;4.396;2022-09-23T09:59:42;11.20;;;4.80;;
19828;SDS011;10075;50.924;4.396;2022-09-23T10:02:13;10.98;;;5.15;;
19828;SDS011;10075;50.924;4.396;2022-09-23T10:04:53;9.35;;;4.57;;
19828;SDS011;10075;50.924;4.396;2022-09-23T10:07:23;10.60;;;4.53;;
19828;SDS011;10075;50.924;4.396;2022-09-23T10:09:52;12.98;;;4.45;;
19828;SDS011;10075;50.924;4.396;2022-09-23T10:12:21;12.30;;;4.65;;
19828;SDS011;10075;50.924;4.396;2022-09-23T10:14:49;13.27;;;4.82;;
19828;SDS011;10075;50.924;4.396;2022-09-23T10:17:20;8.15;;;4.53;;
19828;SDS011;10075;50.924;4.396;2022-09-23T10:19:49;9.23;;;4.03;;
19828;SDS011;10075;50.924;4.396;2022-09-23T10:22:23;10.10;;;3.55;;
19828;SDS011;10075;50.924;4.396;2022-09-23T10:24:55;9.88;;;4.40;;
19828;SDS011;10075;50.924;4.396;2022-09-23T10:27:27;10.18;;;3.85;;
19828;SDS011;10075;50.924;4.396;2022-09-23T10:29:57;9.98;;;3.55;;
19828;SDS011;10075;50.924;4.396;2022-09-23T10:32:27;11.43;;;4.15;;
19828;SDS011;10075;50.924;4.396;2022-09-23T10:34:56;8.85;;;3.70;;
19828;SDS011;10075;50.924;4.396;2022-09-23T10:37:29;7.65;;;3.65;;
19828;SDS011;10075;50.924;4.396;2022-09-23T10:40:13;9.32;;;3.45;;
19828;SDS011;10075;50.924;4.396;2022-09-23T10:46:07;7.82;;;3.90;;
19828;SDS011;10075;50.924;4.396;2022-09-23T10:49:03;10.00;;;3.83;;
19828;SDS011;10075;50.924;4.396;2022-09-23T10:51:50;6.90;;;3.65;;
19828;SDS011;10075;50.924;4.396;2022-09-23T10:54:27;5.90;;;3.55;;
19828;SDS011;10075;50.924;4.396;2022-09-23T10:57:03;6.05;;;2.80;;
19828;SDS011;10075;50.924;4.396;2022-09-23T10:59:55;6.22;;;3.20;;
19828;SDS011;10075;50.924;4.396;2022-09-23T11:02:32;6.30;;;2.90;;
19828;SDS011;10075;50.924;4.396;2022-09-23T11:08:02;6.68;;;3.03;;
19828;SDS011;10075;50.924;4.396;2022-09-23T11:13:46;8.25;;;2.97;;
19828;SDS011;10075;50.924;4.396;2022-09-23T11:16:33;4.68;;;2.58;;
19828;SDS011;10075;50.924;4.396;2022-09-23T11:19:13;6.38;;;3.28;;
19828;SDS011;10075;50.924;4.396;2022-09-23T11:22:10;6.90;;;3.15;;
19828;SDS011;10075;50.924;4.396;2022-09-23T11:24:56;7.35;;;3.13;;
19828;SDS011;10075;50.924;4.396;2022-09-23T11:27:36;7.35;;;3.00;;
19828;SDS011;10075;50.924;4.396;2022-09-23T11:30:16;12.00;;;3.30;;
19828;SDS011;10075;50.924;4.396;2022-09-23T11:32:53;12.20;;;3.10;;
19828;SDS011;10075;50.924;4.396;2022-09-23T11:35:40;5.18;;;3.33;;
19828;SDS011;10075;50.924;4.396;2022-09-23T11:38:14;6.75;;;3.00;;
19828;SDS011;10075;50.924;4.396;2022-09-23T11:40:50;5.80;;;2.92;;
19828;SDS011;10075;50.924;4.396;2022-09-23T11:43:21;9.45;;;3.53;;
19828;SDS011;10075;50.924;4.396;2022-09-23T11:45:53;7.00;;;3.05;;
19828;SDS011;10075;50.924;4.396;2022-09-23T11:48:26;7.20;;;3.50;;
19828;SDS011;10075;50.924;4.396;2022-09-23T11:50:58;8.18;;;3.47;;
19828;SDS011;10075;50.924;4.396;2022-09-23T11:53:31;7.97;;;3.05;;
19828;SDS011;10075;50.924;4.396;2022-09-23T11:56:04;5.07;;;3.15;;
19828;SDS011;10075;50.924;4.396;2022-09-23T11:58:38;6.90;;;3.05;;
19828;SDS011;10075;50.924;4.396;2022-09-23T12:01:11;8.60;;;3.65;;
19828;SDS011;10075;50.924;4.396;2022-09-23T12:03:46;7.40;;;3.53;;
19828;SDS011;10075;50.924;4.396;2022-09-23T12:06:19;10.10;;;3.67;;
19828;SDS011;10075;50.924;4.396;2022-09-23T12:08:48;6.82;;;2.92;;
19828;SDS011;10075;50.924;4.396;2022-09-23T12:11:19;9.10;;;3.15;;
19828;SDS011;10075;50.924;4.396;2022-09-23T12:13:53;7.68;;;3.47;;
19828;SDS011;10075;50.924;4.396;2022-09-23T12:16:37;10.18;;;3.55;;
19828;SDS011;10075;50.924;4.396;2022-09-23T12:19:34;6.97;;;3.38;;
19828;SDS011;10075;50.924;4.396;2022-09-23T12:22:23;6.40;;;3.63;;
19828;SDS011;10075;50.924;4.396;2022-09-23T12:25:07;4.65;;;3.08;;
19828;SDS011;10075;50.924;4.396;2022-09-23T12:27:44;7.28;;;2.95;;
19828;SDS011;10075;50.924;4.396;2022-09-23T12:30:15;6.18;;;3.10;;
19828;SDS011;10075;50.924;4.396;2022-09-23T12:32:44;5.55;;;3.08;;
19828;SDS011;10075;50.924;4.396;2022-09-23T12:35:20;9.15;;;3.20;;
19828;SDS011;10075;50.924;4.396;2022-09-23T12:37:49;8.15;;;3.03;;
19828;SDS011;10075;50.924;4.396;2022-09-23T12:40:19;5.95;;;3.03;;
19828;SDS011;10075;50.924;4.396;2022-09-23T12:42:49;4.22;;;2.38;;
19828;SDS011;10075;50.924;4.396;2022-09-23T12:48:00;5.13;;;2.67;;
19828;SDS011;10075;50.924;4.396;2022-09-23T12:56:22;9.52;;;3.30;;
19828;SDS011;10075;50.924;4.396;2022-09-23T13:01:52;4.63;;;2.72;;
19828;SDS011;10075;50.924;4.396;2022-09-23T13:04:30;8.15;;;2.72;;
19828;SDS011;10075;50.924;4.396;2022-09-23T13:07:20;8.52;;;3.25;;
19828;SDS011;10075;50.924;4.396;2022-09-23T13:09:51;8.68;;;3.17;;
19828;SDS011;10075;50.924;4.396;2022-09-23T13:12:22;6.45;;;3.33;;
19828;SDS011;10075;50.924;4.396;2022-09-23T13:14:56;6.55;;;3.45;;
19828;SDS011;10075;50.924;4.396;2022-09-23T13:17:29;6.43;;;3.15;;
19828;SDS011;10075;50.924;4.396;2022-09-23T13:20:02;8.15;;;3.13;;
19828;SDS011;10075;50.924;4.396;2022-09-23T13:25:30;6.78;;;3.80;;
19828;SDS011;10075;50.924;4.396;2022-09-23T13:28:01;6.55;;;3.53;;
19828;SDS011;10075;50.924;4.396;2022-09-23T13:30:28;8.50;;;3.72;;
19828;SDS011;10075;50.924;4.396;2022-09-23T13:33:00;6.28;;;3.83;;
19828;SDS011;10075;50.924;4.396;2022-09-23T13:35:31;9.80;;;4.30;;
19828;SDS011;10075;50.924;4.396;2022-09-23T13:38:09;5.53;;;3.70;;
19828;SDS011;10075;50.924;4.396;2022-09-23T13:40:38;9.40;;;4.35;;
19828;SDS011;10075;50.924;4.396;2022-09-23T13:43:09;6.63;;;3.70;;
19828;SDS011;10075;50.924;4.396;2022-09-23T13:45:42;5.53;;;4.22;;
19828;SDS011;10075;50.924;4.396;2022-09-23T13:48:10;11.20;;;4.55;;
19828;SDS011;10075;50.924;4.396;2022-09-23T13:50:42;9.18;;;4.35;;
19828;SDS011;10075;50.924;4.396;2022-09-23T13:53:15;7.25;;;4.00;;
19828;SDS011;10075;50.924;4.396;2022-09-23T13:55:53;5.97;;;4.15;;
19828;SDS011;10075;50.924;4.396;2022-09-23T13:58:27;8.63;;;4.13;;
19828;SDS011;10075;50.924;4.396;2022-09-23T14:00:55;10.30;;;4.72;;
19828;SDS011;10075;50.924;4.396;2022-09-23T14:03:23;8.10;;;4.20;;
19828;SDS011;10075;50.924;4.396;2022-09-23T14:05:52;8.95;;;4.82;;
19828;SDS011;10075;50.924;4.396;2022-09-23T14:08:22;7.75;;;4.63;;
19828;SDS011;10075;50.924;4.396;2022-09-23T14:10:49;6.93;;;4.72;;
19828;SDS011;10075;50.924;4.396;2022-09-23T14:13:17;11.95;;;5.10;;
19828;SDS011;10075;50.924;4.396;2022-09-23T14:15:47;8.63;;;4.53;;
19828;SDS011;10075;50.924;4.396;2022-09-23T14:18:17;6.00;;;4.75;;
19828;SDS011;10075;50.924;4.396;2022-09-23T14:20:51;10.52;;;5.18;;
19828;SDS011;10075;50.924;4.396;2022-09-23T14:23:18;7.30;;;4.82;;
19828;SDS011;10075;50.924;4.396;2022-09-23T14:25:46;9.43;;;5.10;;
19828;SDS011;10075;50.924;4.396;2022-09-23T14:28:15;11.75;;;5.30;;
19828;SDS011;10075;50.924;4.396;2022-09-23T14:30:44;10.15;;;4.88;;
19828;SDS011;10075;50.924;4.396;2022-09-23T14:33:14;6.53;;;4.47;;
19828;SDS011;10075;50.924;4.396;2022-09-23T14:35:43;12.50;;;5.22;;
19828;SDS011;10075;50.924;4.396;2022-09-23T14:38:23;7.32;;;4.35;;
19828;SDS011;10075;50.924;4.396;2022-09-23T14:41:14;8.65;;;4.05;;
19828;SDS011;10075;50.924;4.396;2022-09-23T14:43:46;7.70;;;4.10;;
19828;SDS011;10075;50.924;4.396;2022-09-23T14:46:16;5.85;;;4.15;;
19828;SDS011;10075;50.924;4.396;2022-09-23T14:48:50;8.65;;;4.43;;
19828;SDS011;10075;50.924;4.396;2022-09-23T14:51:31;8.93;;;4.47;;
19828;SDS011;10075;50.924;4.396;2022-09-23T14:54:21;7.05;;;4.07;;
19828;SDS011;10075;50.924;4.396;2022-09-23T14:57:02;8.98;;;4.30;;
19828;SDS011;10075;50.924;4.396;2022-09-23T14:59:46;7.82;;;3.75;;
19828;SDS011;10075;50.924;4.396;2022-09-23T15:02:26;8.30;;;4.60;;
19828;SDS011;10075;50.924;4.396;2022-09-23T15:05:07;7.38;;;3.88;;
19828;SDS011;10075;50.924;4.396;2022-09-23T15:07:39;7.72;;;4.00;;
19828;SDS011;10075;50.924;4.396;2022-09-23T15:10:07;8.98;;;4.10;;
19828;SDS011;10075;50.924;4.396;2022-09-23T15:12:43;7.25;;;4.10;;
19828;SDS011;10075;50.924;4.396;2022-09-23T15:15:12;9.43;;;4.35;;
19828;SDS011;10075;50.924;4.396;2022-09-23T15:17:40;14.45;;;4.38;;
19828;SDS011;10075;50.924;4.396;2022-09-23T15:20:16;9.50;;;4.78;;
19828;SDS011;10075;50.924;4.396;2022-09-23T15:22:45;6.55;;;4.07;;
19828;SDS011;10075;50.924;4.396;2022-09-23T15:25:15;9.05;;;3.83;;